sensor_id;sensor_type;location;lat;lon;timestamp;temperature;humidity
40374;DHT22;26079;45.958;12.492;2023-04-01T00:00:20;8.90;99.90
40374;DHT22;26079;45.958;12.492;2023-04-01T00:02:46;8.90;99.90
40374;DHT22;26079;45.958;12.492;2023-04-01T00:05:13;9.00;99.90
40374;DHT22;26079;45.958;12.492;2023-04-01T00:07:39;8.90;99.90
40374;DHT22;26079;45.958;12.492;2023-04-01T00:10:10;8.90;99.90
40374;DHT22;26079;45.958;12.492;2023-04-01T00:12:37;8.90;99.90
40374;DHT22;26079;45.958;12.492;2023-04-01T00:15:05;8.80;99.90
40374;DHT22;26079;45.958;12.492;2023-04-01T00:17:30;8.80;99.90
40374;DHT22;26079;45.958;12.492;2023-04-01T00:19:56;8.80;99.90
40374;DHT22;26079;45.958;12.492;2023-04-01T00:22:23;8.80;99.90
40374;DHT22;26079;45.958;12.492;2023-04-01T00:24:49;8.80;99.90
40374;DHT22;26079;45.958;12.492;2023-04-01T00:27:15;8.70;99.90
40374;DHT22;26079;45.958;12.492;2023-04-01T00:29:45;8.70;99.90
40374;DHT22;26079;45.958;12.492;2023-04-01T00:32:11;8.70;99.90
40374;DHT22;26079;45.958;12.492;2023-04-01T00:34:37;8.70;99.90
40374;DHT22;26079;45.958;12.492;2023-04-01T00:37:05;8.70;99.90
40374;DHT22;26079;45.958;12.492;2023-04-01T00:39:32;8.70;99.90
40374;DHT22;26079;45.958;12.492;2023-04-01T00:41:59;8.60;99.90
40374;DHT22;26079;45.958;12.492;2023-04-01T00:44:33;8.60;99.90
40374;DHT22;26079;45.958;12.492;2023-04-01T00:47:00;8.70;99.90
40374;DHT22;26079;45.958;12.492;2023-04-01T00:49:35;8.60;99.90
40374;DHT22;26079;45.958;12.492;2023-04-01T00:52:04;8.50;99.90
40374;DHT22;26079;45.958;12.492;2023-04-01T00:54:31;8.50;99.90
40374;DHT22;26079;45.958;12.492;2023-04-01T00:57:15;8.50;99.90
40374;DHT22;26079;45.958;12.492;2023-04-01T00:59:45;8.50;99.90
40374;DHT22;26079;45.958;12.492;2023-04-01T01:02:13;8.40;99.90
40374;DHT22;26079;45.958;12.492;2023-04-01T01:04:39;8.30;99.90
40374;DHT22;26079;45.958;12.492;2023-04-01T01:10:17;8.30;99.90
40374;DHT22;26079;45.958;12.492;2023-04-01T01:27:04;8.20;99.90
40374;DHT22;26079;45.958;12.492;2023-04-01T01:32:34;8.10;99.90
40374;DHT22;26079;45.958;12.492;2023-04-01T01:37:53;8.00;99.90
40374;DHT22;26079;45.958;12.492;2023-04-01T01:40:20;8.00;99.90
40374;DHT22;26079;45.958;12.492;2023-04-01T01:42:50;8.00;99.90
40374;DHT22;26079;45.958;12.492;2023-04-01T01:45:19;8.00;99.90
40374;DHT22;26079;45.958;12.492;2023-04-01T01:47:45;8.00;99.90
40374;DHT22;26079;45.958;12.492;2023-04-01T01:50:12;8.00;99.90
40374;DHT22;26079;45.958;12.492;2023-04-01T01:52:39;7.90;99.90
40374;DHT22;26079;45.958;12.492;2023-04-01T01:55:24;7.80;99.90
40374;DHT22;26079;45.958;12.492;2023-04-01T01:57:51;7.70;99.90
40374;DHT22;26079;45.958;12.492;2023-04-01T02:00:18;7.60;99.90
40374;DHT22;26079;45.958;12.492;2023-04-01T02:02:46;7.60;99.90
40374;DHT22;26079;45.958;12.492;2023-04-01T02:05:24;7.60;99.90
40374;DHT22;26079;45.958;12.492;2023-04-01T02:08:02;7.40;99.90
40374;DHT22;26079;45.958;12.492;2023-04-01T02:10:36;7.30;99.90
40374;DHT22;26079;45.958;12.492;2023-04-01T02:13:21;7.30;99.90
40374;DHT22;26079;45.958;12.492;2023-04-01T02:15:50;7.30;99.90
40374;DHT22;26079;45.958;12.492;2023-04-01T02:18:18;7.20;99.90
40374;DHT22;26079;45.958;12.492;2023-04-01T02:20:46;7.20;99.90
40374;DHT22;26079;45.958;12.492;2023-04-01T02:23:13;7.20;99.90
40374;DHT22;26079;45.958;12.492;2023-04-01T02:25:40;7.10;99.90
40374;DHT22;26079;45.958;12.492;2023-04-01T02:28:07;7.10;99.90
40374;DHT22;26079;45.958;12.492;2023-04-01T02:30:36;7.10;99.90
40374;DHT22;26079;45.958;12.492;2023-04-01T02:33:04;7.10;99.90
40374;DHT22;26079;45.958;12.492;2023-04-01T02:35:32;7.10;99.90
40374;DHT22;26079;45.958;12.492;2023-04-01T02:37:58;7.10;99.90
40374;DHT22;26079;45.958;12.492;2023-04-01T02:40:24;7.10;99.90
40374;DHT22;26079;45.958;12.492;2023-04-01T02:42:49;7.10;99.90
40374;DHT22;26079;45.958;12.492;2023-04-01T02:45:16;7.00;99.90
40374;DHT22;26079;45.958;12.492;2023-04-01T02:47:41;7.10;99.90
40374;DHT22;26079;45.958;12.492;2023-04-01T02:50:08;7.20;99.90
40374;DHT22;26079;45.958;12.492;2023-04-01T02:52:35;7.20;99.90
40374;DHT22;26079;45.958;12.492;2023-04-01T02:55:01;7.10;99.90
40374;DHT22;26079;45.958;12.492;2023-04-01T02:57:27;7.00;99.90
40374;DHT22;26079;45.958;12.492;2023-04-01T02:59:53;6.90;99.90
40374;DHT22;26079;45.958;12.492;2023-04-01T03:02:18;6.90;99.90
40374;DHT22;26079;45.958;12.492;2023-04-01T03:04:44;6.80;99.90
40374;DHT22;26079;45.958;12.492;2023-04-01T03:07:11;6.80;99.90
40374;DHT22;26079;45.958;12.492;2023-04-01T03:09:37;6.80;99.90
40374;DHT22;26079;45.958;12.492;2023-04-01T03:12:03;6.80;99.90
40374;DHT22;26079;45.958;12.492;2023-04-01T03:14:29;6.80;99.90
40374;DHT22;26079;45.958;12.492;2023-04-01T03:16:54;6.80;99.90
40374;DHT22;26079;45.958;12.492;2023-04-01T03:19:20;6.70;99.90
40374;DHT22;26079;45.958;12.492;2023-04-01T03:21:46;6.70;99.90
40374;DHT22;26079;45.958;12.492;2023-04-01T03:24:12;6.70;99.90
40374;DHT22;26079;45.958;12.492;2023-04-01T03:26:37;6.70;99.90
40374;DHT22;26079;45.958;12.492;2023-04-01T03:29:03;6.70;99.90
40374;DHT22;26079;45.958;12.492;2023-04-01T03:31:29;6.70;99.90
40374;DHT22;26079;45.958;12.492;2023-04-01T03:33:54;6.60;99.90
40374;DHT22;26079;45.958;12.492;2023-04-01T03:36:20;6.60;99.90
40374;DHT22;26079;45.958;12.492;2023-04-01T03:38:46;6.60;99.90
40374;DHT22;26079;45.958;12.492;2023-04-01T03:41:13;6.70;99.90
40374;DHT22;26079;45.958;12.492;2023-04-01T03:43:39;6.80;99.90
40374;DHT22;26079;45.958;12.492;2023-04-01T03:46:05;6.80;99.90
40374;DHT22;26079;45.958;12.492;2023-04-01T03:48:31;6.80;99.90
40374;DHT22;26079;45.958;12.492;2023-04-01T03:50:56;6.60;99.90
40374;DHT22;26079;45.958;12.492;2023-04-01T03:53:22;6.40;99.90
40374;DHT22;26079;45.958;12.492;2023-04-01T03:55:48;6.40;99.90
40374;DHT22;26079;45.958;12.492;2023-04-01T03:58:14;6.30;99.90
40374;DHT22;26079;45.958;12.492;2023-04-01T04:00:40;6.30;99.90
40374;DHT22;26079;45.958;12.492;2023-04-01T04:03:06;6.10;99.90
40374;DHT22;26079;45.958;12.492;2023-04-01T04:05:32;6.10;99.90
40374;DHT22;26079;45.958;12.492;2023-04-01T04:07:58;6.00;99.90
40374;DHT22;26079;45.958;12.492;2023-04-01T04:10:23;6.00;99.90
40374;DHT22;26079;45.958;12.492;2023-04-01T04:12:50;6.00;99.90
40374;DHT22;26079;45.958;12.492;2023-04-01T04:15:16;6.00;99.90
40374;DHT22;26079;45.958;12.492;2023-04-01T04:17:43;6.00;99.90
40374;DHT22;26079;45.958;12.492;2023-04-01T04:20:09;5.90;99.90
40374;DHT22;26079;45.958;12.492;2023-04-01T04:22:35;5.90;99.90
40374;DHT22;26079;45.958;12.492;2023-04-01T04:25:01;6.00;99.90
40374;DHT22;26079;45.958;12.492;2023-04-01T04:27:26;5.90;99.90
40374;DHT22;26079;45.958;12.492;2023-04-01T04:29:52;5.90;99.90
40374;DHT22;26079;45.958;12.492;2023-04-01T04:32:18;5.80;99.90
40374;DHT22;26079;45.958;12.492;2023-04-01T04:34:43;5.90;99.90
40374;DHT22;26079;45.958;12.492;2023-04-01T04:37:09;5.90;99.90
40374;DHT22;26079;45.958;12.492;2023-04-01T04:39:35;5.90;99.90
40374;DHT22;26079;45.958;12.492;2023-04-01T04:42:00;5.90;99.90
40374;DHT22;26079;45.958;12.492;2023-04-01T04:44:26;5.90;99.90
40374;DHT22;26079;45.958;12.492;2023-04-01T04:46:52;5.90;99.90
40374;DHT22;26079;45.958;12.492;2023-04-01T04:49:17;5.90;99.90
40374;DHT22;26079;45.958;12.492;2023-04-01T04:51:44;5.90;99.90
40374;DHT22;26079;45.958;12.492;2023-04-01T04:54:09;5.90;99.90
40374;DHT22;26079;45.958;12.492;2023-04-01T04:56:35;5.90;99.90
40374;DHT22;26079;45.958;12.492;2023-04-01T04:59:01;5.90;99.90
40374;DHT22;26079;45.958;12.492;2023-04-01T05:01:27;5.90;99.90
40374;DHT22;26079;45.958;12.492;2023-04-01T05:03:52;5.90;99.90
40374;DHT22;26079;45.958;12.492;2023-04-01T05:06:19;5.90;99.90
40374;DHT22;26079;45.958;12.492;2023-04-01T05:08:45;5.90;99.90
40374;DHT22;26079;45.958;12.492;2023-04-01T05:11:18;5.90;99.90
40374;DHT22;26079;45.958;12.492;2023-04-01T05:13:45;5.90;99.90
40374;DHT22;26079;45.958;12.492;2023-04-01T05:16:15;5.90;99.90
40374;DHT22;26079;45.958;12.492;2023-04-01T05:18:42;5.90;99.90
40374;DHT22;26079;45.958;12.492;2023-04-01T05:21:11;5.80;99.90
40374;DHT22;26079;45.958;12.492;2023-04-01T05:23:37;5.80;99.90
40374;DHT22;26079;45.958;12.492;2023-04-01T05:26:09;5.80;99.90
40374;DHT22;26079;45.958;12.492;2023-04-01T05:28:35;5.80;99.90
40374;DHT22;26079;45.958;12.492;2023-04-01T05:31:02;5.70;99.90
40374;DHT22;26079;45.958;12.492;2023-04-01T05:33:30;5.70;99.90
40374;DHT22;26079;45.958;12.492;2023-04-01T05:35:56;5.50;99.90
40374;DHT22;26079;45.958;12.492;2023-04-01T05:38:22;5.50;99.90
40374;DHT22;26079;45.958;12.492;2023-04-01T05:40:48;5.60;99.90
40374;DHT22;26079;45.958;12.492;2023-04-01T05:43:13;5.70;99.90
40374;DHT22;26079;45.958;12.492;2023-04-01T05:45:39;5.80;99.90
40374;DHT22;26079;45.958;12.492;2023-04-01T05:48:05;5.90;99.90
40374;DHT22;26079;45.958;12.492;2023-04-01T05:50:31;6.00;99.90
40374;DHT22;26079;45.958;12.492;2023-04-01T05:52:57;6.10;99.90
40374;DHT22;26079;45.958;12.492;2023-04-01T05:55:22;6.30;99.90
40374;DHT22;26079;45.958;12.492;2023-04-01T05:57:48;6.60;99.90
40374;DHT22;26079;45.958;12.492;2023-04-01T06:00:16;7.20;99.90
40374;DHT22;26079;45.958;12.492;2023-04-01T06:02:42;8.00;99.90
40374;DHT22;26079;45.958;12.492;2023-04-01T06:05:16;8.80;99.90
40374;DHT22;26079;45.958;12.492;2023-04-01T06:07:43;8.90;99.90
40374;DHT22;26079;45.958;12.492;2023-04-01T06:13:46;7.80;99.90
40374;DHT22;26079;45.958;12.492;2023-04-01T06:19:31;7.30;99.90
40374;DHT22;26079;45.958;12.492;2023-04-01T06:30:45;7.20;99.90
40374;DHT22;26079;45.958;12.492;2023-04-01T06:39:22;7.40;99.90
40374;DHT22;26079;45.958;12.492;2023-04-01T06:44:28;7.50;99.90
40374;DHT22;26079;45.958;12.492;2023-04-01T06:47:07;7.60;99.90
40374;DHT22;26079;45.958;12.492;2023-04-01T06:52:19;7.80;99.90
40374;DHT22;26079;45.958;12.492;2023-04-01T06:54:53;7.90;99.90
40374;DHT22;26079;45.958;12.492;2023-04-01T07:00:21;8.10;99.90
40374;DHT22;26079;45.958;12.492;2023-04-01T07:03:36;8.30;99.90
40374;DHT22;26079;45.958;12.492;2023-04-01T07:05:42;8.40;99.90
40374;DHT22;26079;45.958;12.492;2023-04-01T07:08:28;8.60;99.90
40374;DHT22;26079;45.958;12.492;2023-04-01T07:11:06;8.80;99.90
40374;DHT22;26079;45.958;12.492;2023-04-01T07:19:06;9.30;99.90
40374;DHT22;26079;45.958;12.492;2023-04-01T07:21:40;9.30;99.90
40374;DHT22;26079;45.958;12.492;2023-04-01T07:24:15;9.50;99.90
40374;DHT22;26079;45.958;12.492;2023-04-01T07:26:43;9.70;99.90
40374;DHT22;26079;45.958;12.492;2023-04-01T07:29:13;9.80;99.90
40374;DHT22;26079;45.958;12.492;2023-04-01T07:34:50;10.20;99.90
40374;DHT22;26079;45.958;12.492;2023-04-01T07:43:06;10.80;99.90
40374;DHT22;26079;45.958;12.492;2023-04-01T07:50:28;11.50;99.90
40374;DHT22;26079;45.958;12.492;2023-04-01T07:53:03;11.80;99.90
40374;DHT22;26079;45.958;12.492;2023-04-01T07:56:08;11.90;99.90
40374;DHT22;26079;45.958;12.492;2023-04-01T08:04:37;12.50;98.70
40374;DHT22;26079;45.958;12.492;2023-04-01T08:07:23;12.60;98.60
40374;DHT22;26079;45.958;12.492;2023-04-01T08:10:26;12.60;98.70
40374;DHT22;26079;45.958;12.492;2023-04-01T08:21:41;12.90;99.90
40374;DHT22;26079;45.958;12.492;2023-04-01T08:24:35;13.00;99.80
40374;DHT22;26079;45.958;12.492;2023-04-01T08:27:11;13.10;97.30
40374;DHT22;26079;45.958;12.492;2023-04-01T08:29:40;13.10;98.50
40374;DHT22;26079;45.958;12.492;2023-04-01T08:32:28;13.10;98.90
40374;DHT22;26079;45.958;12.492;2023-04-01T08:35:20;13.00;96.10
40374;DHT22;26079;45.958;12.492;2023-04-01T08:37:48;13.00;97.00
40374;DHT22;26079;45.958;12.492;2023-04-01T08:45:56;13.10;95.30
40374;DHT22;26079;45.958;12.492;2023-04-01T08:53:49;13.00;94.20
40374;DHT22;26079;45.958;12.492;2023-04-01T09:08:08;13.80;90.30
40374;DHT22;26079;45.958;12.492;2023-04-01T09:21:37;14.30;88.20
40374;DHT22;26079;45.958;12.492;2023-04-01T09:27:02;14.50;89.00
40374;DHT22;26079;45.958;12.492;2023-04-01T09:32:18;14.70;89.40
40374;DHT22;26079;45.958;12.492;2023-04-01T09:46:50;15.10;86.70
40374;DHT22;26079;45.958;12.492;2023-04-01T09:52:18;15.20;85.20
40374;DHT22;26079;45.958;12.492;2023-04-01T09:55:00;15.20;86.00
40374;DHT22;26079;45.958;12.492;2023-04-01T10:11:42;15.40;84.10
40374;DHT22;26079;45.958;12.492;2023-04-01T10:17:35;15.60;86.20
40374;DHT22;26079;45.958;12.492;2023-04-01T10:20:12;15.70;84.20
40374;DHT22;26079;45.958;12.492;2023-04-01T10:22:56;15.70;82.90
40374;DHT22;26079;45.958;12.492;2023-04-01T10:36:21;15.60;82.00
40374;DHT22;26079;45.958;12.492;2023-04-01T10:53:37;15.10;82.50
40374;DHT22;26079;45.958;12.492;2023-04-01T10:59:03;14.80;83.00
40374;DHT22;26079;45.958;12.492;2023-04-01T11:31:47;15.30;83.20
40374;DHT22;26079;45.958;12.492;2023-04-01T11:42:52;15.50;79.40
40374;DHT22;26079;45.958;12.492;2023-04-01T11:45:38;15.60;81.90
40374;DHT22;26079;45.958;12.492;2023-04-01T11:48:23;15.60;81.80
40374;DHT22;26079;45.958;12.492;2023-04-01T11:53:47;15.80;79.70
40374;DHT22;26079;45.958;12.492;2023-04-01T12:08:13;16.40;77.90
40374;DHT22;26079;45.958;12.492;2023-04-01T12:11:08;16.50;76.40
40374;DHT22;26079;45.958;12.492;2023-04-01T12:19:42;16.60;75.60
40374;DHT22;26079;45.958;12.492;2023-04-01T12:38:29;16.90;73.50
40374;DHT22;26079;45.958;12.492;2023-04-01T12:52:13;17.10;75.20
40374;DHT22;26079;45.958;12.492;2023-04-01T13:06:01;17.10;76.20
40374;DHT22;26079;45.958;12.492;2023-04-01T13:11:16;17.30;74.10
40374;DHT22;26079;45.958;12.492;2023-04-01T13:16:46;17.40;74.60
40374;DHT22;26079;45.958;12.492;2023-04-01T13:25:27;17.50;72.60
40374;DHT22;26079;45.958;12.492;2023-04-01T13:28:05;17.40;71.30
40374;DHT22;26079;45.958;12.492;2023-04-01T13:33:35;17.40;71.10
40374;DHT22;26079;45.958;12.492;2023-04-01T13:39:17;17.30;73.10
40374;DHT22;26079;45.958;12.492;2023-04-01T13:42:16;17.40;72.10
40374;DHT22;26079;45.958;12.492;2023-04-01T13:45:00;17.60;70.50
40374;DHT22;26079;45.958;12.492;2023-04-01T14:06:53;18.20;69.30
40374;DHT22;26079;45.958;12.492;2023-04-01T14:09:30;18.40;69.10
40374;DHT22;26079;45.958;12.492;2023-04-01T14:12:33;18.40;69.50
40374;DHT22;26079;45.958;12.492;2023-04-01T14:27:04;19.00;68.00
40374;DHT22;26079;45.958;12.492;2023-04-01T14:32:11;19.00;68.00
40374;DHT22;26079;45.958;12.492;2023-04-01T14:41:17;18.70;68.60
40374;DHT22;26079;45.958;12.492;2023-04-01T14:43:56;18.90;67.80
40374;DHT22;26079;45.958;12.492;2023-04-01T14:46:51;18.80;67.50
40374;DHT22;26079;45.958;12.492;2023-04-01T14:52:26;18.80;68.10
40374;DHT22;26079;45.958;12.492;2023-04-01T14:54:54;18.80;68.40
40374;DHT22;26079;45.958;12.492;2023-04-01T14:57:31;18.80;67.30
40374;DHT22;26079;45.958;12.492;2023-04-01T15:03:02;18.80;69.10
40374;DHT22;26079;45.958;12.492;2023-04-01T15:08:26;19.10;68.50
40374;DHT22;26079;45.958;12.492;2023-04-01T15:27:18;19.00;68.00
40374;DHT22;26079;45.958;12.492;2023-04-01T15:40:53;18.50;69.60
40374;DHT22;26079;45.958;12.492;2023-04-01T15:43:41;18.40;70.10
40374;DHT22;26079;45.958;12.492;2023-04-01T15:49:15;18.40;69.50
40374;DHT22;26079;45.958;12.492;2023-04-01T16:22:38;18.20;71.60
40374;DHT22;26079;45.958;12.492;2023-04-01T16:33:47;18.30;76.80
40374;DHT22;26079;45.958;12.492;2023-04-01T16:41:32;18.50;79.20
40374;DHT22;26079;45.958;12.492;2023-04-01T16:44:23;18.60;79.30
40374;DHT22;26079;45.958;12.492;2023-04-01T16:47:05;18.50;79.00
40374;DHT22;26079;45.958;12.492;2023-04-01T16:49:46;18.40;78.90
40374;DHT22;26079;45.958;12.492;2023-04-01T16:55:17;18.20;80.10
40374;DHT22;26079;45.958;12.492;2023-04-01T16:57:48;18.00;78.70
40374;DHT22;26079;45.958;12.492;2023-04-01T17:00:36;17.80;74.80
40374;DHT22;26079;45.958;12.492;2023-04-01T17:05:55;17.40;75.40
40374;DHT22;26079;45.958;12.492;2023-04-01T17:11:36;17.30;77.30
40374;DHT22;26079;45.958;12.492;2023-04-01T17:13:52;17.20;79.60
40374;DHT22;26079;45.958;12.492;2023-04-01T17:41:14;16.20;86.10
40374;DHT22;26079;45.958;12.492;2023-04-01T17:43:48;16.20;85.50
40374;DHT22;26079;45.958;12.492;2023-04-01T18:03:06;15.50;88.30
40374;DHT22;26079;45.958;12.492;2023-04-01T18:08:57;15.30;88.70
40374;DHT22;26079;45.958;12.492;2023-04-01T18:17:17;15.00;90.10
40374;DHT22;26079;45.958;12.492;2023-04-01T18:25:36;14.70;91.20
40374;DHT22;26079;45.958;12.492;2023-04-01T18:28:31;14.60;91.60
40374;DHT22;26079;45.958;12.492;2023-04-01T18:31:14;14.50;91.80
40374;DHT22;26079;45.958;12.492;2023-04-01T18:36:44;14.50;92.20
40374;DHT22;26079;45.958;12.492;2023-04-01T18:39:19;14.50;92.00
40374;DHT22;26079;45.958;12.492;2023-04-01T18:42:15;14.40;92.10
40374;DHT22;26079;45.958;12.492;2023-04-01T18:44:51;14.30;92.30
40374;DHT22;26079;45.958;12.492;2023-04-01T18:50:02;14.20;93.00
40374;DHT22;26079;45.958;12.492;2023-04-01T18:52:36;14.10;93.30
40374;DHT22;26079;45.958;12.492;2023-04-01T18:57:47;13.90;94.00
40374;DHT22;26079;45.958;12.492;2023-04-01T19:05:46;13.80;94.50
40374;DHT22;26079;45.958;12.492;2023-04-01T19:08:29;13.70;95.00
40374;DHT22;26079;45.958;12.492;2023-04-01T19:17:02;13.90;93.00
40374;DHT22;26079;45.958;12.492;2023-04-01T19:25:38;13.80;93.00
40374;DHT22;26079;45.958;12.492;2023-04-01T19:28:36;13.80;93.10
40374;DHT22;26079;45.958;12.492;2023-04-01T19:37:28;13.60;92.00
40374;DHT22;26079;45.958;12.492;2023-04-01T19:55:57;13.20;95.60
40374;DHT22;26079;45.958;12.492;2023-04-01T20:01:22;13.20;95.90
40374;DHT22;26079;45.958;12.492;2023-04-01T20:03:55;13.10;95.80
40374;DHT22;26079;45.958;12.492;2023-04-01T20:06:38;13.10;95.80
40374;DHT22;26079;45.958;12.492;2023-04-01T20:14:46;12.80;97.10
40374;DHT22;26079;45.958;12.492;2023-04-01T20:17:17;12.70;97.40
40374;DHT22;26079;45.958;12.492;2023-04-01T20:25:42;12.50;99.80
40374;DHT22;26079;45.958;12.492;2023-04-01T20:33:57;12.30;99.90
40374;DHT22;26079;45.958;12.492;2023-04-01T20:36:51;12.20;99.90
40374;DHT22;26079;45.958;12.492;2023-04-01T20:42:27;12.00;99.90
40374;DHT22;26079;45.958;12.492;2023-04-01T20:52:49;11.60;99.90
40374;DHT22;26079;45.958;12.492;2023-04-01T20:55:30;11.60;99.90
40374;DHT22;26079;45.958;12.492;2023-04-01T21:11:53;11.60;99.90
40374;DHT22;26079;45.958;12.492;2023-04-01T21:31:57;11.30;99.90
40374;DHT22;26079;45.958;12.492;2023-04-01T21:40:36;11.10;99.90
40374;DHT22;26079;45.958;12.492;2023-04-01T21:45:35;11.00;99.90
40374;DHT22;26079;45.958;12.492;2023-04-01T21:48:33;11.00;99.90
40374;DHT22;26079;45.958;12.492;2023-04-01T22:00:13;10.80;99.90
40374;DHT22;26079;45.958;12.492;2023-04-01T22:09:03;10.70;99.90
40374;DHT22;26079;45.958;12.492;2023-04-01T22:14:30;10.50;99.90
40374;DHT22;26079;45.958;12.492;2023-04-01T22:17:00;10.50;99.90
40374;DHT22;26079;45.958;12.492;2023-04-01T22:22:08;10.40;99.90
40374;DHT22;26079;45.958;12.492;2023-04-01T22:32:34;10.20;99.90
40374;DHT22;26079;45.958;12.492;2023-04-01T22:37:43;10.20;99.90
40374;DHT22;26079;45.958;12.492;2023-04-01T22:40:16;10.10;99.90
40374;DHT22;26079;45.958;12.492;2023-04-01T22:42:46;10.10;99.90
40374;DHT22;26079;45.958;12.492;2023-04-01T22:50:38;10.10;99.90
40374;DHT22;26079;45.958;12.492;2023-04-01T22:53:17;10.10;99.90
40374;DHT22;26079;45.958;12.492;2023-04-01T22:55:49;10.00;99.90
40374;DHT22;26079;45.958;12.492;2023-04-01T22:58:21;10.00;99.90
40374;DHT22;26079;45.958;12.492;2023-04-01T23:00:59;10.10;99.90
40374;DHT22;26079;45.958;12.492;2023-04-01T23:03:34;10.10;99.90
40374;DHT22;26079;45.958;12.492;2023-04-01T23:06:03;10.10;99.90
40374;DHT22;26079;45.958;12.492;2023-04-01T23:11:25;10.00;99.90
40374;DHT22;26079;45.958;12.492;2023-04-01T23:14:05;10.00;99.90
40374;DHT22;26079;45.958;12.492;2023-04-01T23:16:39;10.00;99.90
40374;DHT22;26079;45.958;12.492;2023-04-01T23:19:16;10.00;99.90
40374;DHT22;26079;45.958;12.492;2023-04-01T23:21:54;9.80;99.90
40374;DHT22;26079;45.958;12.492;2023-04-01T23:24:36;9.70;99.90
40374;DHT22;26079;45.958;12.492;2023-04-01T23:27:13;9.50;99.90
40374;DHT22;26079;45.958;12.492;2023-04-01T23:29:41;9.50;99.90
40374;DHT22;26079;45.958;12.492;2023-04-01T23:32:34;9.50;99.90
40374;DHT22;26079;45.958;12.492;2023-04-01T23:35:00;9.50;99.90
40374;DHT22;26079;45.958;12.492;2023-04-01T23:37:26;9.40;99.90
40374;DHT22;26079;45.958;12.492;2023-04-01T23:39:54;9.40;99.90
40374;DHT22;26079;45.958;12.492;2023-04-01T23:42:33;9.30;99.90
40374;DHT22;26079;45.958;12.492;2023-04-01T23:45:15;9.30;99.90
40374;DHT22;26079;45.958;12.492;2023-04-01T23:47:48;9.30;99.90
40374;DHT22;26079;45.958;12.492;2023-04-01T23:50:33;9.30;99.90
40374;DHT22;26079;45.958;12.492;2023-04-01T23:53:03;9.30;99.90
40374;DHT22;26079;45.958;12.492;2023-04-01T23:55:33;9.40;99.90
